sensor_id;sensor_type;location;lat;lon;timestamp;P1;durP1;ratioP1;P2;durP2;ratioP2
23590;SDS011;11973;52.098;7.582;2022-12-19T00:03:52;60.45;;;34.22;;
23590;SDS011;11973;52.098;7.582;2022-12-19T00:06:22;65.88;;;35.63;;
23590;SDS011;11973;52.098;7.582;2022-12-19T00:08:49;60.65;;;34.85;;
23590;SDS011;11973;52.098;7.582;2022-12-19T00:11:16;62.10;;;35.38;;
23590;SDS011;11973;52.098;7.582;2022-12-19T00:13:43;62.03;;;33.97;;
23590;SDS011;11973;52.098;7.582;2022-12-19T00:16:12;67.80;;;36.15;;
23590;SDS011;11973;52.098;7.582;2022-12-19T00:18:40;67.30;;;35.53;;
23590;SDS011;11973;52.098;7.582;2022-12-19T00:21:08;67.55;;;36.50;;
23590;SDS011;11973;52.098;7.582;2022-12-19T00:23:36;67.00;;;36.65;;
23590;SDS011;11973;52.098;7.582;2022-12-19T00:26:09;64.90;;;35.90;;
23590;SDS011;11973;52.098;7.582;2022-12-19T00:29:04;67.05;;;35.75;;
23590;SDS011;11973;52.098;7.582;2022-12-19T00:31:33;68.82;;;36.80;;
23590;SDS011;11973;52.098;7.582;2022-12-19T00:34:00;66.70;;;36.70;;
23590;SDS011;11973;52.098;7.582;2022-12-19T00:36:27;71.35;;;36.85;;
23590;SDS011;11973;52.098;7.582;2022-12-19T00:38:56;67.88;;;36.83;;
23590;SDS011;11973;52.098;7.582;2022-12-19T00:41:24;74.00;;;38.10;;
23590;SDS011;11973;52.098;7.582;2022-12-19T00:43:54;67.38;;;36.45;;
23590;SDS011;11973;52.098;7.582;2022-12-19T00:46:22;73.38;;;37.28;;
23590;SDS011;11973;52.098;7.582;2022-12-19T00:48:49;75.15;;;36.47;;
23590;SDS011;11973;52.098;7.582;2022-12-19T00:51:16;69.32;;;36.63;;
23590;SDS011;11973;52.098;7.582;2022-12-19T00:53:43;71.68;;;36.05;;
23590;SDS011;11973;52.098;7.582;2022-12-19T00:56:11;68.30;;;35.70;;
23590;SDS011;11973;52.098;7.582;2022-12-19T00:58:39;66.85;;;35.65;;
23590;SDS011;11973;52.098;7.582;2022-12-19T01:01:07;74.55;;;35.67;;
23590;SDS011;11973;52.098;7.582;2022-12-19T01:03:34;69.07;;;35.25;;
23590;SDS011;11973;52.098;7.582;2022-12-19T01:06:00;70.22;;;35.33;;
23590;SDS011;11973;52.098;7.582;2022-12-19T01:08:26;66.00;;;35.58;;
23590;SDS011;11973;52.098;7.582;2022-12-19T01:10:52;70.57;;;35.58;;
23590;SDS011;11973;52.098;7.582;2022-12-19T01:13:19;68.13;;;35.75;;
23590;SDS011;11973;52.098;7.582;2022-12-19T01:15:45;67.45;;;35.53;;
23590;SDS011;11973;52.098;7.582;2022-12-19T01:18:11;70.30;;;35.58;;
23590;SDS011;11973;52.098;7.582;2022-12-19T01:20:41;66.25;;;34.72;;
23590;SDS011;11973;52.098;7.582;2022-12-19T01:23:09;68.07;;;35.13;;
23590;SDS011;11973;52.098;7.582;2022-12-19T01:25:36;71.25;;;35.53;;
23590;SDS011;11973;52.098;7.582;2022-12-19T01:28:02;72.20;;;37.17;;
23590;SDS011;11973;52.098;7.582;2022-12-19T01:30:30;72.22;;;36.03;;
23590;SDS011;11973;52.098;7.582;2022-12-19T01:32:57;75.93;;;35.22;;
23590;SDS011;11973;52.098;7.582;2022-12-19T01:35:25;69.13;;;34.72;;
23590;SDS011;11973;52.098;7.582;2022-12-19T01:37:52;73.80;;;35.15;;
23590;SDS011;11973;52.098;7.582;2022-12-19T01:40:19;75.63;;;36.47;;
23590;SDS011;11973;52.098;7.582;2022-12-19T01:42:46;74.95;;;35.47;;
23590;SDS011;11973;52.098;7.582;2022-12-19T01:50:14;75.95;;;35.67;;
23590;SDS011;11973;52.098;7.582;2022-12-19T01:52:43;74.25;;;35.20;;
23590;SDS011;11973;52.098;7.582;2022-12-19T01:55:10;77.50;;;36.78;;
23590;SDS011;11973;52.098;7.582;2022-12-19T01:57:36;73.53;;;35.95;;
23590;SDS011;11973;52.098;7.582;2022-12-19T02:00:03;76.53;;;36.10;;
23590;SDS011;11973;52.098;7.582;2022-12-19T02:02:59;72.22;;;36.63;;
23590;SDS011;11973;52.098;7.582;2022-12-19T02:05:25;81.80;;;37.42;;
23590;SDS011;11973;52.098;7.582;2022-12-19T02:07:51;73.68;;;35.70;;
23590;SDS011;11973;52.098;7.582;2022-12-19T02:10:17;74.82;;;35.72;;
23590;SDS011;11973;52.098;7.582;2022-12-19T02:12:43;81.90;;;37.22;;
23590;SDS011;11973;52.098;7.582;2022-12-19T02:15:11;77.40;;;36.80;;
23590;SDS011;11973;52.098;7.582;2022-12-19T02:34:45;79.38;;;36.80;;
23590;SDS011;11973;52.098;7.582;2022-12-19T02:37:27;79.20;;;37.10;;
23590;SDS011;11973;52.098;7.582;2022-12-19T02:42:32;83.18;;;38.13;;
23590;SDS011;11973;52.098;7.582;2022-12-19T02:45:03;82.75;;;38.00;;
23590;SDS011;11973;52.098;7.582;2022-12-19T02:47:31;76.70;;;35.45;;
23590;SDS011;11973;52.098;7.582;2022-12-19T02:49:59;84.35;;;38.45;;
23590;SDS011;11973;52.098;7.582;2022-12-19T02:54:58;85.18;;;38.05;;
23590;SDS011;11973;52.098;7.582;2022-12-19T03:00:12;79.43;;;37.83;;
23590;SDS011;11973;52.098;7.582;2022-12-19T03:15:53;83.10;;;38.92;;
23590;SDS011;11973;52.098;7.582;2022-12-19T03:18:19;84.10;;;38.55;;
23590;SDS011;11973;52.098;7.582;2022-12-19T03:23:33;81.60;;;38.60;;
23590;SDS011;11973;52.098;7.582;2022-12-19T03:26:01;85.85;;;38.60;;
23590;SDS011;11973;52.098;7.582;2022-12-19T03:31:26;83.20;;;37.78;;
23590;SDS011;11973;52.098;7.582;2022-12-19T03:33:54;79.68;;;38.03;;
23590;SDS011;11973;52.098;7.582;2022-12-19T03:36:24;83.15;;;38.40;;
23590;SDS011;11973;52.098;7.582;2022-12-19T03:39:11;84.88;;;36.85;;
23590;SDS011;11973;52.098;7.582;2022-12-19T03:41:38;84.88;;;37.72;;
23590;SDS011;11973;52.098;7.582;2022-12-19T03:44:27;82.25;;;37.80;;
23590;SDS011;11973;52.098;7.582;2022-12-19T03:47:00;81.75;;;37.70;;
23590;SDS011;11973;52.098;7.582;2022-12-19T03:49:32;87.68;;;38.65;;
23590;SDS011;11973;52.098;7.582;2022-12-19T03:51:59;85.05;;;40.13;;
23590;SDS011;11973;52.098;7.582;2022-12-19T03:54:49;81.65;;;38.05;;
23590;SDS011;11973;52.098;7.582;2022-12-19T04:00:20;80.32;;;37.63;;
23590;SDS011;11973;52.098;7.582;2022-12-19T04:02:48;90.28;;;39.13;;
23590;SDS011;11973;52.098;7.582;2022-12-19T04:05:20;84.50;;;38.60;;
23590;SDS011;11973;52.098;7.582;2022-12-19T04:07:48;84.40;;;38.13;;
23590;SDS011;11973;52.098;7.582;2022-12-19T04:10:17;82.38;;;37.60;;
23590;SDS011;11973;52.098;7.582;2022-12-19T04:12:52;78.68;;;36.58;;
23590;SDS011;11973;52.098;7.582;2022-12-19T04:15:25;89.03;;;37.78;;
23590;SDS011;11973;52.098;7.582;2022-12-19T04:18:03;83.03;;;36.83;;
23590;SDS011;11973;52.098;7.582;2022-12-19T04:20:32;79.53;;;37.13;;
23590;SDS011;11973;52.098;7.582;2022-12-19T04:23:07;77.72;;;38.17;;
23590;SDS011;11973;52.098;7.582;2022-12-19T04:25:41;84.32;;;37.08;;
23590;SDS011;11973;52.098;7.582;2022-12-19T04:28:29;83.18;;;37.92;;
23590;SDS011;11973;52.098;7.582;2022-12-19T04:31:09;74.13;;;36.00;;
23590;SDS011;11973;52.098;7.582;2022-12-19T04:33:37;78.45;;;37.13;;
23590;SDS011;11973;52.098;7.582;2022-12-19T04:36:02;90.53;;;38.65;;
23590;SDS011;11973;52.098;7.582;2022-12-19T04:38:28;78.55;;;37.30;;
23590;SDS011;11973;52.098;7.582;2022-12-19T04:40:56;77.18;;;38.05;;
23590;SDS011;11973;52.098;7.582;2022-12-19T04:43:22;81.65;;;37.40;;
23590;SDS011;11973;52.098;7.582;2022-12-19T04:45:48;80.90;;;37.70;;
23590;SDS011;11973;52.098;7.582;2022-12-19T04:48:13;81.35;;;38.00;;
23590;SDS011;11973;52.098;7.582;2022-12-19T04:50:39;82.15;;;37.50;;
23590;SDS011;11973;52.098;7.582;2022-12-19T04:53:05;79.50;;;36.55;;
23590;SDS011;11973;52.098;7.582;2022-12-19T04:55:31;85.00;;;39.85;;
23590;SDS011;11973;52.098;7.582;2022-12-19T04:57:57;85.47;;;38.83;;
23590;SDS011;11973;52.098;7.582;2022-12-19T05:00:23;91.72;;;39.33;;
23590;SDS011;11973;52.098;7.582;2022-12-19T05:02:49;85.57;;;39.17;;
23590;SDS011;11973;52.098;7.582;2022-12-19T05:05:14;90.38;;;41.03;;
23590;SDS011;11973;52.098;7.582;2022-12-19T05:07:42;89.30;;;39.03;;
23590;SDS011;11973;52.098;7.582;2022-12-19T05:10:07;87.43;;;39.40;;
23590;SDS011;11973;52.098;7.582;2022-12-19T05:12:33;88.43;;;39.70;;
23590;SDS011;11973;52.098;7.582;2022-12-19T05:14:59;90.90;;;39.60;;
23590;SDS011;11973;52.098;7.582;2022-12-19T06:16:59;117.35;;;46.67;;
23590;SDS011;11973;52.098;7.582;2022-12-19T06:19:24;130.13;;;47.42;;
23590;SDS011;11973;52.098;7.582;2022-12-19T06:21:50;131.70;;;49.75;;
23590;SDS011;11973;52.098;7.582;2022-12-19T06:24:19;131.07;;;49.60;;
23590;SDS011;11973;52.098;7.582;2022-12-19T06:26:45;139.20;;;51.83;;
23590;SDS011;11973;52.098;7.582;2022-12-19T06:29:11;144.02;;;51.38;;
23590;SDS011;11973;52.098;7.582;2022-12-19T06:31:37;143.90;;;52.50;;
23590;SDS011;11973;52.098;7.582;2022-12-19T06:34:02;157.63;;;54.13;;
23590;SDS011;11973;52.098;7.582;2022-12-19T06:36:29;170.85;;;56.30;;
23590;SDS011;11973;52.098;7.582;2022-12-19T06:38:57;168.77;;;56.03;;
23590;SDS011;11973;52.098;7.582;2022-12-19T06:41:23;152.25;;;54.50;;
23590;SDS011;11973;52.098;7.582;2022-12-19T06:44:09;170.38;;;56.67;;
23590;SDS011;11973;52.098;7.582;2022-12-19T06:46:36;174.68;;;59.58;;
23590;SDS011;11973;52.098;7.582;2022-12-19T06:49:03;169.82;;;59.40;;
23590;SDS011;11973;52.098;7.582;2022-12-19T06:51:29;169.48;;;61.03;;
23590;SDS011;11973;52.098;7.582;2022-12-19T06:53:55;186.30;;;61.08;;
23590;SDS011;11973;52.098;7.582;2022-12-19T06:56:21;183.27;;;61.78;;
23590;SDS011;11973;52.098;7.582;2022-12-19T06:58:47;178.38;;;60.97;;
23590;SDS011;11973;52.098;7.582;2022-12-19T07:01:21;190.02;;;63.85;;
23590;SDS011;11973;52.098;7.582;2022-12-19T07:03:55;185.27;;;62.92;;
23590;SDS011;11973;52.098;7.582;2022-12-19T07:06:21;201.45;;;62.58;;
23590;SDS011;11973;52.098;7.582;2022-12-19T07:08:47;184.23;;;61.67;;
23590;SDS011;11973;52.098;7.582;2022-12-19T07:11:13;190.65;;;62.15;;
23590;SDS011;11973;52.098;7.582;2022-12-19T07:13:39;187.80;;;61.05;;
23590;SDS011;11973;52.098;7.582;2022-12-19T07:16:04;201.40;;;65.70;;
23590;SDS011;11973;52.098;7.582;2022-12-19T07:18:32;195.52;;;64.65;;
23590;SDS011;11973;52.098;7.582;2022-12-19T07:21:02;194.70;;;63.45;;
23590;SDS011;11973;52.098;7.582;2022-12-19T07:23:29;202.13;;;65.75;;
23590;SDS011;11973;52.098;7.582;2022-12-19T07:25:55;190.23;;;64.63;;
23590;SDS011;11973;52.098;7.582;2022-12-19T07:28:21;200.15;;;66.35;;
23590;SDS011;11973;52.098;7.582;2022-12-19T07:30:47;195.20;;;65.93;;
23590;SDS011;11973;52.098;7.582;2022-12-19T07:33:13;194.15;;;64.30;;
23590;SDS011;11973;52.098;7.582;2022-12-19T07:35:39;182.13;;;63.60;;
23590;SDS011;11973;52.098;7.582;2022-12-19T07:38:05;201.35;;;65.13;;
23590;SDS011;11973;52.098;7.582;2022-12-19T07:40:32;210.10;;;66.40;;
23590;SDS011;11973;52.098;7.582;2022-12-19T07:42:58;192.10;;;64.13;;
23590;SDS011;11973;52.098;7.582;2022-12-19T07:45:25;210.90;;;67.93;;
23590;SDS011;11973;52.098;7.582;2022-12-19T07:47:51;207.23;;;68.68;;
23590;SDS011;11973;52.098;7.582;2022-12-19T07:50:16;209.45;;;66.78;;
23590;SDS011;11973;52.098;7.582;2022-12-19T07:52:42;194.25;;;64.35;;
23590;SDS011;11973;52.098;7.582;2022-12-19T07:55:08;206.98;;;68.13;;
23590;SDS011;11973;52.098;7.582;2022-12-19T07:57:34;189.60;;;63.30;;
23590;SDS011;11973;52.098;7.582;2022-12-19T07:59:59;194.25;;;66.93;;
23590;SDS011;11973;52.098;7.582;2022-12-19T08:02:25;212.65;;;68.45;;
23590;SDS011;11973;52.098;7.582;2022-12-19T08:04:51;191.95;;;64.85;;
23590;SDS011;11973;52.098;7.582;2022-12-19T08:07:16;203.88;;;66.22;;
23590;SDS011;11973;52.098;7.582;2022-12-19T08:09:42;207.13;;;67.47;;
23590;SDS011;11973;52.098;7.582;2022-12-19T08:12:08;201.68;;;64.72;;
23590;SDS011;11973;52.098;7.582;2022-12-19T08:14:34;186.52;;;63.22;;
23590;SDS011;11973;52.098;7.582;2022-12-19T08:17:00;201.65;;;65.20;;
23590;SDS011;11973;52.098;7.582;2022-12-19T08:19:26;202.60;;;65.55;;
23590;SDS011;11973;52.098;7.582;2022-12-19T08:21:51;220.55;;;66.82;;
23590;SDS011;11973;52.098;7.582;2022-12-19T08:24:17;205.40;;;66.13;;
23590;SDS011;11973;52.098;7.582;2022-12-19T08:26:43;202.40;;;64.32;;
23590;SDS011;11973;52.098;7.582;2022-12-19T08:29:08;212.88;;;68.63;;
23590;SDS011;11973;52.098;7.582;2022-12-19T08:31:34;197.35;;;65.82;;
23590;SDS011;11973;52.098;7.582;2022-12-19T08:34:00;207.13;;;66.45;;
23590;SDS011;11973;52.098;7.582;2022-12-19T08:36:26;173.60;;;60.63;;
23590;SDS011;11973;52.098;7.582;2022-12-19T08:38:52;201.93;;;64.53;;
23590;SDS011;11973;52.098;7.582;2022-12-19T08:41:18;192.10;;;66.97;;
23590;SDS011;11973;52.098;7.582;2022-12-19T08:43:50;186.98;;;64.10;;
23590;SDS011;11973;52.098;7.582;2022-12-19T08:46:18;201.45;;;64.63;;
23590;SDS011;11973;52.098;7.582;2022-12-19T08:48:44;184.32;;;63.28;;
23590;SDS011;11973;52.098;7.582;2022-12-19T08:51:10;186.63;;;61.72;;
23590;SDS011;11973;52.098;7.582;2022-12-19T08:53:38;167.48;;;59.17;;
23590;SDS011;11973;52.098;7.582;2022-12-19T08:56:06;172.05;;;60.30;;
23590;SDS011;11973;52.098;7.582;2022-12-19T08:58:35;184.65;;;63.00;;
23590;SDS011;11973;52.098;7.582;2022-12-19T09:01:02;183.13;;;61.90;;
23590;SDS011;11973;52.098;7.582;2022-12-19T09:03:31;204.50;;;63.00;;
23590;SDS011;11973;52.098;7.582;2022-12-19T09:05:58;191.70;;;61.50;;
23590;SDS011;11973;52.098;7.582;2022-12-19T09:08:26;185.43;;;60.72;;
23590;SDS011;11973;52.098;7.582;2022-12-19T09:11:00;164.85;;;58.10;;
23590;SDS011;11973;52.098;7.582;2022-12-19T09:13:31;172.13;;;58.67;;
23590;SDS011;11973;52.098;7.582;2022-12-19T09:16:01;143.88;;;54.00;;
23590;SDS011;11973;52.098;7.582;2022-12-19T09:18:29;174.75;;;58.35;;
23590;SDS011;11973;52.098;7.582;2022-12-19T09:20:58;163.55;;;56.88;;
23590;SDS011;11973;52.098;7.582;2022-12-19T09:23:24;163.77;;;57.53;;
23590;SDS011;11973;52.098;7.582;2022-12-19T09:25:52;173.38;;;58.42;;
23590;SDS011;11973;52.098;7.582;2022-12-19T09:28:18;147.52;;;55.83;;
23590;SDS011;11973;52.098;7.582;2022-12-19T09:30:44;162.98;;;57.72;;
23590;SDS011;11973;52.098;7.582;2022-12-19T09:33:10;164.57;;;56.47;;
23590;SDS011;11973;52.098;7.582;2022-12-19T09:35:36;138.48;;;52.25;;
23590;SDS011;11973;52.098;7.582;2022-12-19T09:38:02;148.93;;;54.03;;
23590;SDS011;11973;52.098;7.582;2022-12-19T09:40:29;151.55;;;54.28;;
23590;SDS011;11973;52.098;7.582;2022-12-19T09:43:10;141.48;;;52.55;;
23590;SDS011;11973;52.098;7.582;2022-12-19T09:46:23;148.85;;;54.10;;
23590;SDS011;11973;52.098;7.582;2022-12-19T09:48:46;134.73;;;52.08;;
23590;SDS011;11973;52.098;7.582;2022-12-19T09:56:38;120.85;;;50.00;;
23590;SDS011;11973;52.098;7.582;2022-12-19T09:59:18;132.85;;;52.97;;
23590;SDS011;11973;52.098;7.582;2022-12-19T10:01:59;135.00;;;51.45;;
23590;SDS011;11973;52.098;7.582;2022-12-19T10:04:46;138.57;;;51.83;;
23590;SDS011;11973;52.098;7.582;2022-12-19T10:07:17;117.78;;;48.75;;
23590;SDS011;11973;52.098;7.582;2022-12-19T10:09:44;109.05;;;47.65;;
23590;SDS011;11973;52.098;7.582;2022-12-19T10:18:17;106.82;;;46.47;;
23590;SDS011;11973;52.098;7.582;2022-12-19T10:21:06;115.72;;;48.42;;
23590;SDS011;11973;52.098;7.582;2022-12-19T10:23:42;95.88;;;44.92;;
23590;SDS011;11973;52.098;7.582;2022-12-19T10:27:10;110.68;;;46.15;;
23590;SDS011;11973;52.098;7.582;2022-12-19T10:34:32;92.82;;;42.95;;
23590;SDS011;11973;52.098;7.582;2022-12-19T10:37:16;87.03;;;41.30;;
23590;SDS011;11973;52.098;7.582;2022-12-19T10:39:50;87.05;;;42.00;;
23590;SDS011;11973;52.098;7.582;2022-12-19T10:45:13;74.72;;;39.80;;
23590;SDS011;11973;52.098;7.582;2022-12-19T10:47:41;86.95;;;39.53;;
23590;SDS011;11973;52.098;7.582;2022-12-19T10:50:11;81.22;;;40.28;;
23590;SDS011;11973;52.098;7.582;2022-12-19T10:52:44;73.18;;;38.83;;
23590;SDS011;11973;52.098;7.582;2022-12-19T10:55:36;68.90;;;35.47;;
23590;SDS011;11973;52.098;7.582;2022-12-19T11:03:23;58.10;;;33.88;;
23590;SDS011;11973;52.098;7.582;2022-12-19T11:05:50;62.38;;;34.10;;
23590;SDS011;11973;52.098;7.582;2022-12-19T11:08:20;63.03;;;33.55;;
23590;SDS011;11973;52.098;7.582;2022-12-19T11:10:52;54.72;;;32.45;;
23590;SDS011;11973;52.098;7.582;2022-12-19T11:15:55;54.50;;;32.97;;
23590;SDS011;11973;52.098;7.582;2022-12-19T11:18:25;57.03;;;32.80;;
23590;SDS011;11973;52.098;7.582;2022-12-19T11:21:27;51.00;;;31.13;;
23590;SDS011;11973;52.098;7.582;2022-12-19T11:29:49;48.92;;;29.60;;
23590;SDS011;11973;52.098;7.582;2022-12-19T11:32:28;42.25;;;28.02;;
23590;SDS011;11973;52.098;7.582;2022-12-19T11:35:10;43.38;;;28.08;;
23590;SDS011;11973;52.098;7.582;2022-12-19T11:37:54;42.03;;;26.92;;
23590;SDS011;11973;52.098;7.582;2022-12-19T11:40:50;37.65;;;26.00;;
23590;SDS011;11973;52.098;7.582;2022-12-19T11:46:19;39.50;;;25.55;;
23590;SDS011;11973;52.098;7.582;2022-12-19T11:51:51;37.95;;;25.15;;
23590;SDS011;11973;52.098;7.582;2022-12-19T11:57:02;34.47;;;23.55;;
23590;SDS011;11973;52.098;7.582;2022-12-19T11:59:31;31.77;;;22.38;;
23590;SDS011;11973;52.098;7.582;2022-12-19T12:07:11;34.35;;;24.20;;
23590;SDS011;11973;52.098;7.582;2022-12-19T12:12:30;32.35;;;22.88;;
23590;SDS011;11973;52.098;7.582;2022-12-19T12:15:09;34.05;;;23.15;;
23590;SDS011;11973;52.098;7.582;2022-12-19T12:21:03;25.65;;;20.27;;
23590;SDS011;11973;52.098;7.582;2022-12-19T12:26:30;28.33;;;20.23;;
23590;SDS011;11973;52.098;7.582;2022-12-19T12:37:14;22.55;;;18.10;;
23590;SDS011;11973;52.098;7.582;2022-12-19T12:43:08;20.95;;;16.67;;
23590;SDS011;11973;52.098;7.582;2022-12-19T12:45:57;18.90;;;16.80;;
23590;SDS011;11973;52.098;7.582;2022-12-19T12:48:25;18.70;;;16.67;;
23590;SDS011;11973;52.098;7.582;2022-12-19T12:50:55;19.65;;;15.88;;
23590;SDS011;11973;52.098;7.582;2022-12-19T12:53:32;19.70;;;15.88;;
23590;SDS011;11973;52.098;7.582;2022-12-19T12:56:02;17.73;;;15.85;;
23590;SDS011;11973;52.098;7.582;2022-12-19T13:01:24;18.58;;;15.70;;
23590;SDS011;11973;52.098;7.582;2022-12-19T13:03:59;21.23;;;16.30;;
23590;SDS011;11973;52.098;7.582;2022-12-19T13:12:01;17.80;;;14.98;;
23590;SDS011;11973;52.098;7.582;2022-12-19T13:15:15;17.92;;;15.63;;
23590;SDS011;11973;52.098;7.582;2022-12-19T13:18:39;16.55;;;14.25;;
23590;SDS011;11973;52.098;7.582;2022-12-19T13:21:00;17.67;;;14.38;;
23590;SDS011;11973;52.098;7.582;2022-12-19T13:26:01;16.15;;;14.43;;
23590;SDS011;11973;52.098;7.582;2022-12-19T13:39:16;15.20;;;12.88;;
23590;SDS011;11973;52.098;7.582;2022-12-19T13:42:09;13.60;;;12.20;;
23590;SDS011;11973;52.098;7.582;2022-12-19T13:44:57;13.48;;;12.27;;
23590;SDS011;11973;52.098;7.582;2022-12-19T13:47:32;12.68;;;11.57;;
23590;SDS011;11973;52.098;7.582;2022-12-19T13:50:05;13.40;;;12.23;;
23590;SDS011;11973;52.098;7.582;2022-12-19T13:52:54;13.90;;;12.55;;
23590;SDS011;11973;52.098;7.582;2022-12-19T13:55:23;13.82;;;12.15;;
23590;SDS011;11973;52.098;7.582;2022-12-19T13:57:52;13.90;;;12.52;;
23590;SDS011;11973;52.098;7.582;2022-12-19T14:00:20;13.23;;;12.02;;
23590;SDS011;11973;52.098;7.582;2022-12-19T14:02:54;14.65;;;13.15;;
23590;SDS011;11973;52.098;7.582;2022-12-19T14:07:50;15.85;;;13.13;;
23590;SDS011;11973;52.098;7.582;2022-12-19T14:10:18;14.43;;;13.02;;
23590;SDS011;11973;52.098;7.582;2022-12-19T14:12:52;14.63;;;13.23;;
23590;SDS011;11973;52.098;7.582;2022-12-19T14:15:39;14.38;;;12.90;;
23590;SDS011;11973;52.098;7.582;2022-12-19T14:18:14;15.88;;;13.18;;
23590;SDS011;11973;52.098;7.582;2022-12-19T14:21:36;14.48;;;13.02;;
23590;SDS011;11973;52.098;7.582;2022-12-19T14:23:46;15.10;;;13.50;;
23590;SDS011;11973;52.098;7.582;2022-12-19T14:26:23;14.38;;;12.90;;
23590;SDS011;11973;52.098;7.582;2022-12-19T14:28:53;14.02;;;12.63;;
23590;SDS011;11973;52.098;7.582;2022-12-19T14:31:25;14.63;;;13.13;;
23590;SDS011;11973;52.098;7.582;2022-12-19T14:33:52;14.52;;;13.13;;
23590;SDS011;11973;52.098;7.582;2022-12-19T14:36:25;13.95;;;12.57;;
23590;SDS011;11973;52.098;7.582;2022-12-19T14:38:52;13.52;;;12.25;;
23590;SDS011;11973;52.098;7.582;2022-12-19T14:44:50;13.65;;;12.35;;
23590;SDS011;11973;52.098;7.582;2022-12-19T14:47:22;13.25;;;11.95;;
23590;SDS011;11973;52.098;7.582;2022-12-19T14:49:50;14.45;;;13.00;;
23590;SDS011;11973;52.098;7.582;2022-12-19T14:52:33;15.40;;;13.75;;
23590;SDS011;11973;52.098;7.582;2022-12-19T14:55:23;14.90;;;13.40;;
23590;SDS011;11973;52.098;7.582;2022-12-19T14:57:55;15.07;;;13.40;;
23590;SDS011;11973;52.098;7.582;2022-12-19T15:00:26;13.93;;;12.48;;
23590;SDS011;11973;52.098;7.582;2022-12-19T15:02:59;11.20;;;10.32;;
23590;SDS011;11973;52.098;7.582;2022-12-19T15:05:26;12.25;;;11.05;;
23590;SDS011;11973;52.098;7.582;2022-12-19T15:07:54;12.15;;;10.95;;
23590;SDS011;11973;52.098;7.582;2022-12-19T15:10:41;11.63;;;10.57;;
23590;SDS011;11973;52.098;7.582;2022-12-19T15:15:58;11.18;;;10.30;;
23590;SDS011;11973;52.098;7.582;2022-12-19T15:20:58;11.45;;;10.48;;
23590;SDS011;11973;52.098;7.582;2022-12-19T15:23:25;13.15;;;11.88;;
23590;SDS011;11973;52.098;7.582;2022-12-19T15:25:52;11.55;;;10.55;;
23590;SDS011;11973;52.098;7.582;2022-12-19T15:28:20;10.27;;;9.50;;
23590;SDS011;11973;52.098;7.582;2022-12-19T15:30:54;10.63;;;9.68;;
23590;SDS011;11973;52.098;7.582;2022-12-19T15:33:26;10.68;;;9.77;;
23590;SDS011;11973;52.098;7.582;2022-12-19T15:35:52;10.55;;;9.63;;
23590;SDS011;11973;52.098;7.582;2022-12-19T15:38:18;9.80;;;9.07;;
23590;SDS011;11973;52.098;7.582;2022-12-19T15:40:45;9.73;;;9.02;;
23590;SDS011;11973;52.098;7.582;2022-12-19T15:43:18;10.05;;;9.15;;
23590;SDS011;11973;52.098;7.582;2022-12-19T15:45:47;10.00;;;9.13;;
23590;SDS011;11973;52.098;7.582;2022-12-19T15:48:16;9.27;;;8.57;;
23590;SDS011;11973;52.098;7.582;2022-12-19T15:50:43;8.88;;;8.25;;
23590;SDS011;11973;52.098;7.582;2022-12-19T15:53:16;8.65;;;8.15;;
23590;SDS011;11973;52.098;7.582;2022-12-19T15:55:43;9.48;;;8.75;;
23590;SDS011;11973;52.098;7.582;2022-12-19T15:58:09;8.48;;;7.88;;
23590;SDS011;11973;52.098;7.582;2022-12-19T16:00:36;8.93;;;8.13;;
23590;SDS011;11973;52.098;7.582;2022-12-19T16:03:03;13.82;;;12.63;;
23590;SDS011;11973;52.098;7.582;2022-12-19T16:05:29;15.15;;;13.73;;
23590;SDS011;11973;52.098;7.582;2022-12-19T16:08:01;21.25;;;19.13;;
23590;SDS011;11973;52.098;7.582;2022-12-19T16:10:27;9.95;;;9.40;;
23590;SDS011;11973;52.098;7.582;2022-12-19T16:12:54;12.77;;;11.73;;
23590;SDS011;11973;52.098;7.582;2022-12-19T16:17:55;9.60;;;8.95;;
23590;SDS011;11973;52.098;7.582;2022-12-19T16:20:23;13.10;;;12.13;;
23590;SDS011;11973;52.098;7.582;2022-12-19T16:22:51;12.30;;;11.20;;
23590;SDS011;11973;52.098;7.582;2022-12-19T16:25:17;11.82;;;11.10;;
23590;SDS011;11973;52.098;7.582;2022-12-19T16:27:43;10.10;;;9.40;;
23590;SDS011;11973;52.098;7.582;2022-12-19T16:30:17;13.60;;;12.48;;
23590;SDS011;11973;52.098;7.582;2022-12-19T16:32:48;18.77;;;17.27;;
23590;SDS011;11973;52.098;7.582;2022-12-19T16:35:16;15.50;;;14.23;;
23590;SDS011;11973;52.098;7.582;2022-12-19T16:37:43;13.52;;;12.20;;
23590;SDS011;11973;52.098;7.582;2022-12-19T16:40:16;14.48;;;13.07;;
23590;SDS011;11973;52.098;7.582;2022-12-19T16:42:48;15.02;;;13.50;;
23590;SDS011;11973;52.098;7.582;2022-12-19T16:47:48;15.25;;;13.90;;
23590;SDS011;11973;52.098;7.582;2022-12-19T16:50:20;12.50;;;11.23;;
23590;SDS011;11973;52.098;7.582;2022-12-19T16:52:50;22.08;;;19.77;;
23590;SDS011;11973;52.098;7.582;2022-12-19T16:55:16;17.30;;;15.50;;
23590;SDS011;11973;52.098;7.582;2022-12-19T16:57:44;15.85;;;14.32;;
23590;SDS011;11973;52.098;7.582;2022-12-19T17:00:21;14.68;;;13.20;;
23590;SDS011;11973;52.098;7.582;2022-12-19T17:07:46;35.35;;;31.83;;
23590;SDS011;11973;52.098;7.582;2022-12-19T17:10:13;34.85;;;31.15;;
23590;SDS011;11973;52.098;7.582;2022-12-19T17:12:40;52.58;;;46.92;;
23590;SDS011;11973;52.098;7.582;2022-12-19T17:15:11;16.55;;;15.07;;
23590;SDS011;11973;52.098;7.582;2022-12-19T17:17:45;13.10;;;11.80;;
23590;SDS011;11973;52.098;7.582;2022-12-19T17:20:15;13.82;;;12.65;;
23590;SDS011;11973;52.098;7.582;2022-12-19T17:22:43;12.68;;;11.60;;
23590;SDS011;11973;52.098;7.582;2022-12-19T17:25:20;12.13;;;11.13;;
23590;SDS011;11973;52.098;7.582;2022-12-19T17:27:51;10.52;;;9.82;;
23590;SDS011;11973;52.098;7.582;2022-12-19T17:30:18;10.18;;;9.23;;
23590;SDS011;11973;52.098;7.582;2022-12-19T17:32:45;9.23;;;8.48;;
23590;SDS011;11973;52.098;7.582;2022-12-19T17:35:17;13.27;;;12.27;;
23590;SDS011;11973;52.098;7.582;2022-12-19T17:37:47;9.23;;;8.55;;
23590;SDS011;11973;52.098;7.582;2022-12-19T17:40:16;13.73;;;12.63;;
23590;SDS011;11973;52.098;7.582;2022-12-19T17:42:44;10.68;;;9.82;;
23590;SDS011;11973;52.098;7.582;2022-12-19T17:45:11;10.18;;;9.38;;
23590;SDS011;11973;52.098;7.582;2022-12-19T17:47:37;9.50;;;8.90;;
23590;SDS011;11973;52.098;7.582;2022-12-19T17:50:05;8.55;;;7.85;;
23590;SDS011;11973;52.098;7.582;2022-12-19T17:52:40;9.52;;;8.65;;
23590;SDS011;11973;52.098;7.582;2022-12-19T17:55:13;9.40;;;8.52;;
23590;SDS011;11973;52.098;7.582;2022-12-19T17:57:39;8.57;;;7.88;;
23590;SDS011;11973;52.098;7.582;2022-12-19T18:00:05;7.75;;;7.45;;
23590;SDS011;11973;52.098;7.582;2022-12-19T18:02:37;8.00;;;7.53;;
23590;SDS011;11973;52.098;7.582;2022-12-19T18:05:03;8.20;;;7.70;;
23590;SDS011;11973;52.098;7.582;2022-12-19T18:07:30;8.15;;;7.45;;
23590;SDS011;11973;52.098;7.582;2022-12-19T18:09:56;8.15;;;7.55;;
23590;SDS011;11973;52.098;7.582;2022-12-19T18:12:22;9.02;;;8.40;;
23590;SDS011;11973;52.098;7.582;2022-12-19T18:14:47;37.97;;;32.83;;
23590;SDS011;11973;52.098;7.582;2022-12-19T18:17:15;16.67;;;15.20;;
23590;SDS011;11973;52.098;7.582;2022-12-19T18:19:48;9.25;;;8.77;;
23590;SDS011;11973;52.098;7.582;2022-12-19T18:22:14;10.30;;;9.60;;
23590;SDS011;11973;52.098;7.582;2022-12-19T18:24:40;20.58;;;18.60;;